sensor_id;sensor_type;location;lat;lon;timestamp;pressure;altitude;pressure_sealevel;temperature;humidity
75063;BME280;63981;51.052;13.754;2023-04-24T00:00:28;99164.94;;;11.70;81.37
75063;BME280;63981;51.052;13.754;2023-04-24T00:02:54;99163.81;;;11.63;81.67
75063;BME280;63981;51.052;13.754;2023-04-24T00:05:23;99157.38;;;11.56;82.22
75063;BME280;63981;51.052;13.754;2023-04-24T00:07:49;99113.44;;;11.35;81.75
75063;BME280;63981;51.052;13.754;2023-04-24T00:10:18;99161.59;;;11.68;81.62
75063;BME280;63981;51.052;13.754;2023-04-24T00:12:44;99152.97;;;11.66;81.82
75063;BME280;63981;51.052;13.754;2023-04-24T00:15:10;99146.59;;;11.68;81.46
75063;BME280;63981;51.052;13.754;2023-04-24T00:17:37;99154.22;;;11.71;81.67
75063;BME280;63981;51.052;13.754;2023-04-24T00:20:04;99144.88;;;11.58;81.70
75063;BME280;63981;51.052;13.754;2023-04-24T00:22:30;99167.97;;;11.65;81.85
75063;BME280;63981;51.052;13.754;2023-04-24T00:24:56;99183.53;;;11.68;81.83
75063;BME280;63981;51.052;13.754;2023-04-24T00:27:23;99186.03;;;11.70;81.74
75063;BME280;63981;51.052;13.754;2023-04-24T00:29:48;99179.78;;;11.61;81.90
75063;BME280;63981;51.052;13.754;2023-04-24T00:32:14;99172.00;;;11.69;81.79
75063;BME280;63981;51.052;13.754;2023-04-24T00:34:40;99177.47;;;11.77;81.57
75063;BME280;63981;51.052;13.754;2023-04-24T00:37:06;99169.97;;;11.73;81.40
75063;BME280;63981;51.052;13.754;2023-04-24T00:39:32;99175.34;;;11.71;81.11
75063;BME280;63981;51.052;13.754;2023-04-24T00:41:58;99165.75;;;11.70;81.16
75063;BME280;63981;51.052;13.754;2023-04-24T00:44:23;99169.13;;;11.72;81.50
75063;BME280;63981;51.052;13.754;2023-04-24T00:46:49;99112.06;;;11.41;80.87
75063;BME280;63981;51.052;13.754;2023-04-24T00:49:22;99170.63;;;11.65;82.17
75063;BME280;63981;51.052;13.754;2023-04-24T00:51:49;99086.84;;;11.17;81.43
75063;BME280;63981;51.052;13.754;2023-04-24T00:54:17;99134.69;;;11.43;82.18
75063;BME280;63981;51.052;13.754;2023-04-24T00:56:44;99166.72;;;11.69;81.41
75063;BME280;63981;51.052;13.754;2023-04-24T00:59:16;99170.34;;;11.68;82.22
75063;BME280;63981;51.052;13.754;2023-04-24T01:01:43;99155.75;;;11.64;81.82
75063;BME280;63981;51.052;13.754;2023-04-24T01:04:12;99118.63;;;11.46;82.28
75063;BME280;63981;51.052;13.754;2023-04-24T01:06:42;99151.88;;;11.68;82.31
75063;BME280;63981;51.052;13.754;2023-04-24T01:09:08;99039.63;;;11.14;81.18
75063;BME280;63981;51.052;13.754;2023-04-24T01:11:37;99152.78;;;11.58;82.27
75063;BME280;63981;51.052;13.754;2023-04-24T01:14:04;99151.53;;;11.52;82.15
75063;BME280;63981;51.052;13.754;2023-04-24T01:16:30;99163.25;;;11.59;82.56
75063;BME280;63981;51.052;13.754;2023-04-24T01:18:56;99162.13;;;11.62;82.48
75063;BME280;63981;51.052;13.754;2023-04-24T01:21:23;99154.22;;;11.71;81.89
75063;BME280;63981;51.052;13.754;2023-04-24T01:23:53;99154.59;;;11.57;82.26
75063;BME280;63981;51.052;13.754;2023-04-24T01:26:19;99126.34;;;11.38;82.49
75063;BME280;63981;51.052;13.754;2023-04-24T01:28:46;99175.56;;;11.79;81.58
75063;BME280;63981;51.052;13.754;2023-04-24T01:31:11;99169.69;;;11.76;81.59
75063;BME280;63981;51.052;13.754;2023-04-24T01:33:37;99169.03;;;11.84;81.70
75063;BME280;63981;51.052;13.754;2023-04-24T01:36:03;99167.63;;;11.79;81.64
75063;BME280;63981;51.052;13.754;2023-04-24T01:38:30;99146.91;;;11.75;81.15
75063;BME280;63981;51.052;13.754;2023-04-24T01:40:55;99097.84;;;11.32;81.92
75063;BME280;63981;51.052;13.754;2023-04-24T01:43:21;99143.38;;;11.65;81.65
75063;BME280;63981;51.052;13.754;2023-04-24T01:45:47;99156.53;;;11.86;81.93
75063;BME280;63981;51.052;13.754;2023-04-24T01:48:13;99164.47;;;11.86;81.73
75063;BME280;63981;51.052;13.754;2023-04-24T01:50:39;99097.50;;;11.56;80.66
75063;BME280;63981;51.052;13.754;2023-04-24T01:53:05;99159.44;;;11.82;81.76
75063;BME280;63981;51.052;13.754;2023-04-24T01:55:31;99092.94;;;11.48;81.89
75063;BME280;63981;51.052;13.754;2023-04-24T01:57:57;99161.09;;;11.84;81.64
75063;BME280;63981;51.052;13.754;2023-04-24T02:00:25;99148.69;;;11.74;81.62
75063;BME280;63981;51.052;13.754;2023-04-24T02:02:52;99161.94;;;11.84;82.10
75063;BME280;63981;51.052;13.754;2023-04-24T02:05:18;99160.78;;;11.77;81.88
75063;BME280;63981;51.052;13.754;2023-04-24T02:07:44;99160.53;;;11.80;81.92
75063;BME280;63981;51.052;13.754;2023-04-24T02:10:10;99164.56;;;11.84;82.22
75063;BME280;63981;51.052;13.754;2023-04-24T02:12:36;99127.28;;;11.68;81.94
75063;BME280;63981;51.052;13.754;2023-04-24T02:15:02;99157.50;;;11.85;81.86
75063;BME280;63981;51.052;13.754;2023-04-24T02:17:28;99106.81;;;11.50;81.98
75063;BME280;63981;51.052;13.754;2023-04-24T02:19:54;99147.28;;;11.70;82.44
75063;BME280;63981;51.052;13.754;2023-04-24T02:22:20;99150.38;;;11.75;82.22
75063;BME280;63981;51.052;13.754;2023-04-24T02:24:46;99151.66;;;11.81;82.13
75063;BME280;63981;51.052;13.754;2023-04-24T02:27:14;99154.69;;;11.76;82.12
75063;BME280;63981;51.052;13.754;2023-04-24T02:29:40;99154.38;;;11.70;82.88
75063;BME280;63981;51.052;13.754;2023-04-24T02:32:06;99163.56;;;11.75;82.48
75063;BME280;63981;51.052;13.754;2023-04-24T02:34:32;99159.13;;;11.76;82.91
75063;BME280;63981;51.052;13.754;2023-04-24T02:36:59;99158.44;;;11.74;82.57
75063;BME280;63981;51.052;13.754;2023-04-24T02:39:24;99161.91;;;11.74;82.92
75063;BME280;63981;51.052;13.754;2023-04-24T02:41:51;99141.66;;;11.85;81.65
75063;BME280;63981;51.052;13.754;2023-04-24T02:44:17;99161.28;;;12.01;81.60
75063;BME280;63981;51.052;13.754;2023-04-24T02:46:43;99159.56;;;11.81;82.05
75063;BME280;63981;51.052;13.754;2023-04-24T02:49:09;99138.81;;;11.67;82.26
75063;BME280;63981;51.052;13.754;2023-04-24T02:51:34;99157.72;;;11.72;82.17
75063;BME280;63981;51.052;13.754;2023-04-24T02:54:03;99159.09;;;11.66;83.04
75063;BME280;63981;51.052;13.754;2023-04-24T02:56:29;99160.19;;;11.64;83.10
75063;BME280;63981;51.052;13.754;2023-04-24T02:58:57;99121.97;;;11.58;82.79
75063;BME280;63981;51.052;13.754;2023-04-24T03:01:22;99163.72;;;11.74;82.25
75063;BME280;63981;51.052;13.754;2023-04-24T03:03:48;99143.66;;;11.62;82.57
75063;BME280;63981;51.052;13.754;2023-04-24T03:06:15;99156.59;;;11.65;82.66
75063;BME280;63981;51.052;13.754;2023-04-24T03:08:41;99095.94;;;11.34;82.95
75063;BME280;63981;51.052;13.754;2023-04-24T03:11:07;99153.66;;;11.68;82.87
75063;BME280;63981;51.052;13.754;2023-04-24T03:13:34;99095.09;;;11.34;82.94
75063;BME280;63981;51.052;13.754;2023-04-24T03:16:00;99110.69;;;11.46;82.40
75063;BME280;63981;51.052;13.754;2023-04-24T03:18:27;99153.28;;;11.72;82.38
75063;BME280;63981;51.052;13.754;2023-04-24T03:20:52;99153.81;;;11.66;82.27
75063;BME280;63981;51.052;13.754;2023-04-24T03:23:18;99148.38;;;11.68;82.54
75063;BME280;63981;51.052;13.754;2023-04-24T03:25:44;99157.00;;;11.70;82.55
75063;BME280;63981;51.052;13.754;2023-04-24T03:28:11;99137.94;;;11.57;83.25
75063;BME280;63981;51.052;13.754;2023-04-24T03:30:43;99151.88;;;11.68;83.16
75063;BME280;63981;51.052;13.754;2023-04-24T03:33:10;99122.53;;;11.62;82.58
75063;BME280;63981;51.052;13.754;2023-04-24T03:35:41;99151.66;;;11.81;82.37
75063;BME280;63981;51.052;13.754;2023-04-24T03:38:09;99152.56;;;11.61;82.88
75063;BME280;63981;51.052;13.754;2023-04-24T03:40:41;99155.72;;;11.55;83.34
75063;BME280;63981;51.052;13.754;2023-04-24T03:43:37;99163.25;;;11.59;83.63
75063;BME280;63981;51.052;13.754;2023-04-24T03:46:04;99166.00;;;11.58;83.61
75063;BME280;63981;51.052;13.754;2023-04-24T03:48:33;99168.22;;;11.52;83.38
75063;BME280;63981;51.052;13.754;2023-04-24T03:51:00;99166.72;;;11.60;83.07
75063;BME280;63981;51.052;13.754;2023-04-24T03:53:27;99169.03;;;11.53;82.92
75063;BME280;63981;51.052;13.754;2023-04-24T03:55:54;99171.81;;;11.51;83.18
75063;BME280;63981;51.052;13.754;2023-04-24T03:58:21;99177.16;;;11.61;82.07
75063;BME280;63981;51.052;13.754;2023-04-24T04:00:47;99168.38;;;11.61;82.49
75063;BME280;63981;51.052;13.754;2023-04-24T04:03:51;99187.94;;;11.89;81.11
75063;BME280;63981;51.052;13.754;2023-04-24T04:06:22;99141.22;;;11.79;80.25
75063;BME280;63981;51.052;13.754;2023-04-24T04:08:50;99187.03;;;12.19;79.52
75063;BME280;63981;51.052;13.754;2023-04-24T04:11:16;99193.44;;;12.26;80.08
75063;BME280;63981;51.052;13.754;2023-04-24T04:13:41;99187.31;;;12.25;79.46
75063;BME280;63981;51.052;13.754;2023-04-24T04:16:08;99153.25;;;12.13;76.77
75063;BME280;63981;51.052;13.754;2023-04-24T04:18:34;99185.94;;;12.50;77.03
75063;BME280;63981;51.052;13.754;2023-04-24T04:21:00;99160.63;;;12.28;76.64
75063;BME280;63981;51.052;13.754;2023-04-24T04:23:27;99183.72;;;12.55;76.76
75063;BME280;63981;51.052;13.754;2023-04-24T04:26:14;99180.94;;;12.57;74.78
75063;BME280;63981;51.052;13.754;2023-04-24T04:28:54;99171.19;;;12.48;76.13
75063;BME280;63981;51.052;13.754;2023-04-24T04:31:21;99186.63;;;12.72;75.22
75063;BME280;63981;51.052;13.754;2023-04-24T04:33:48;99175.22;;;12.61;75.11
75063;BME280;63981;51.052;13.754;2023-04-24T04:36:14;99195.53;;;12.80;72.70
75063;BME280;63981;51.052;13.754;2023-04-24T04:38:44;99193.13;;;13.06;72.00
75063;BME280;63981;51.052;13.754;2023-04-24T04:41:33;99181.16;;;13.02;70.96
75063;BME280;63981;51.052;13.754;2023-04-24T04:44:01;99133.34;;;12.76;70.33
75063;BME280;63981;51.052;13.754;2023-04-24T04:46:31;99183.53;;;13.05;69.55
75063;BME280;63981;51.052;13.754;2023-04-24T04:49:05;99145.00;;;12.83;69.49
75063;BME280;63981;51.052;13.754;2023-04-24T04:51:31;99178.63;;;13.00;69.80
75063;BME280;63981;51.052;13.754;2023-04-24T04:53:57;99181.84;;;13.04;69.17
75063;BME280;63981;51.052;13.754;2023-04-24T04:56:24;99180.97;;;13.13;68.56
75063;BME280;63981;51.052;13.754;2023-04-24T04:58:50;99184.16;;;13.26;68.94
75063;BME280;63981;51.052;13.754;2023-04-24T05:01:16;99142.56;;;13.09;69.17
75063;BME280;63981;51.052;13.754;2023-04-24T05:03:45;99186.19;;;13.52;68.32
75063;BME280;63981;51.052;13.754;2023-04-24T05:06:13;99192.47;;;13.78;66.78
75063;BME280;63981;51.052;13.754;2023-04-24T05:08:40;99186.41;;;13.68;67.50
75063;BME280;63981;51.052;13.754;2023-04-24T05:11:09;99190.22;;;13.83;66.63
75063;BME280;63981;51.052;13.754;2023-04-24T05:13:36;99189.44;;;14.18;64.79
75063;BME280;63981;51.052;13.754;2023-04-24T05:16:06;99195.06;;;13.88;65.19
75063;BME280;63981;51.052;13.754;2023-04-24T05:18:32;99193.44;;;14.05;65.62
75063;BME280;63981;51.052;13.754;2023-04-24T05:20:58;99189.94;;;14.04;64.21
75063;BME280;63981;51.052;13.754;2023-04-24T05:23:24;99198.03;;;13.85;65.53
75063;BME280;63981;51.052;13.754;2023-04-24T05:25:52;99194.28;;;13.78;64.51
75063;BME280;63981;51.052;13.754;2023-04-24T05:28:19;99190.91;;;13.85;63.93
75063;BME280;63981;51.052;13.754;2023-04-24T05:30:55;99195.81;;;13.80;64.50
75063;BME280;63981;51.052;13.754;2023-04-24T05:33:23;99175.31;;;13.82;64.53
75063;BME280;63981;51.052;13.754;2023-04-24T05:35:49;99102.88;;;13.46;63.34
75063;BME280;63981;51.052;13.754;2023-04-24T05:38:14;99192.41;;;14.15;64.75
75063;BME280;63981;51.052;13.754;2023-04-24T05:40:43;99194.88;;;13.99;63.63
75063;BME280;63981;51.052;13.754;2023-04-24T05:43:09;99190.78;;;14.05;62.86
75063;BME280;63981;51.052;13.754;2023-04-24T05:45:35;99194.72;;;14.01;63.47
75063;BME280;63981;51.052;13.754;2023-04-24T05:48:02;99153.63;;;13.97;62.79
75063;BME280;63981;51.052;13.754;2023-04-24T05:50:28;99182.88;;;14.40;62.50
75063;BME280;63981;51.052;13.754;2023-04-24T05:52:54;99189.59;;;14.17;62.62
75063;BME280;63981;51.052;13.754;2023-04-24T05:55:27;99174.38;;;14.19;61.80
75063;BME280;63981;51.052;13.754;2023-04-24T05:57:53;99188.59;;;14.45;62.19
75063;BME280;63981;51.052;13.754;2023-04-24T06:00:20;99199.06;;;14.47;61.67
75063;BME280;63981;51.052;13.754;2023-04-24T06:02:53;99198.22;;;14.47;60.93
75063;BME280;63981;51.052;13.754;2023-04-24T06:05:20;99204.97;;;14.59;61.70
75063;BME280;63981;51.052;13.754;2023-04-24T06:07:46;99209.63;;;15.00;60.60
75063;BME280;63981;51.052;13.754;2023-04-24T06:10:12;99198.56;;;14.87;59.61
75063;BME280;63981;51.052;13.754;2023-04-24T06:12:41;99136.59;;;14.35;58.76
75063;BME280;63981;51.052;13.754;2023-04-24T06:15:12;99194.84;;;14.98;58.73
75063;BME280;63981;51.052;13.754;2023-04-24T06:18:07;99196.94;;;15.38;58.64
75063;BME280;63981;51.052;13.754;2023-04-24T06:20:33;99197.38;;;15.59;58.25
75063;BME280;63981;51.052;13.754;2023-04-24T06:23:01;99172.44;;;15.52;57.96
75063;BME280;63981;51.052;13.754;2023-04-24T06:25:27;99201.94;;;16.17;57.31
75063;BME280;63981;51.052;13.754;2023-04-24T06:27:55;99154.56;;;16.05;54.68
75063;BME280;63981;51.052;13.754;2023-04-24T06:30:21;99198.16;;;16.44;55.10
75063;BME280;63981;51.052;13.754;2023-04-24T06:32:47;99165.25;;;16.45;53.21
75063;BME280;63981;51.052;13.754;2023-04-24T06:35:14;99208.81;;;16.52;53.60
75063;BME280;63981;51.052;13.754;2023-04-24T06:37:41;99207.56;;;16.81;53.57
75063;BME280;63981;51.052;13.754;2023-04-24T06:40:08;99200.22;;;16.91;53.82
75063;BME280;63981;51.052;13.754;2023-04-24T06:42:34;99202.88;;;16.67;54.35
75063;BME280;63981;51.052;13.754;2023-04-24T06:45:02;99194.22;;;16.89;53.50
75063;BME280;63981;51.052;13.754;2023-04-24T06:47:29;99143.66;;;16.73;52.17
75063;BME280;63981;51.052;13.754;2023-04-24T06:49:55;99171.25;;;17.13;51.01
75063;BME280;63981;51.052;13.754;2023-04-24T06:52:21;99198.84;;;17.36;51.76
75063;BME280;63981;51.052;13.754;2023-04-24T06:54:47;99179.22;;;17.84;50.11
75063;BME280;63981;51.052;13.754;2023-04-24T06:57:13;99205.75;;;18.09;50.36
75063;BME280;63981;51.052;13.754;2023-04-24T06:59:39;99180.34;;;17.90;49.01
75063;BME280;63981;51.052;13.754;2023-04-24T07:02:04;99201.09;;;17.72;49.28
75063;BME280;63981;51.052;13.754;2023-04-24T07:04:30;99177.91;;;18.65;48.16
75063;BME280;63981;51.052;13.754;2023-04-24T07:06:56;99204.31;;;19.21;45.84
75063;BME280;63981;51.052;13.754;2023-04-24T07:09:24;99199.28;;;18.03;47.74
75063;BME280;63981;51.052;13.754;2023-04-24T07:11:51;99194.75;;;18.66;47.59
75063;BME280;63981;51.052;13.754;2023-04-24T07:14:17;99160.19;;;18.87;45.56
75063;BME280;63981;51.052;13.754;2023-04-24T07:16:43;99197.78;;;19.53;45.48
75063;BME280;63981;51.052;13.754;2023-04-24T07:19:09;99203.81;;;19.69;45.44
75063;BME280;63981;51.052;13.754;2023-04-24T07:21:35;99204.34;;;19.65;46.20
75063;BME280;63981;51.052;13.754;2023-04-24T07:24:01;99208.31;;;19.54;45.96
75063;BME280;63981;51.052;13.754;2023-04-24T07:26:29;99213.66;;;19.54;44.46
75063;BME280;63981;51.052;13.754;2023-04-24T07:28:55;99214.97;;;19.06;44.76
75063;BME280;63981;51.052;13.754;2023-04-24T07:31:20;99216.84;;;18.20;48.52
75063;BME280;63981;51.052;13.754;2023-04-24T07:33:47;99218.53;;;17.82;48.93
75063;BME280;63981;51.052;13.754;2023-04-24T07:36:13;99219.88;;;17.78;48.55
75063;BME280;63981;51.052;13.754;2023-04-24T07:38:42;99222.47;;;17.94;49.02
75063;BME280;63981;51.052;13.754;2023-04-24T07:41:09;99228.47;;;17.96;47.85
75063;BME280;63981;51.052;13.754;2023-04-24T07:43:35;99211.53;;;18.51;47.89
75063;BME280;63981;51.052;13.754;2023-04-24T07:46:01;99223.72;;;18.46;47.62
75063;BME280;63981;51.052;13.754;2023-04-24T07:48:27;99222.28;;;18.66;46.88
75063;BME280;63981;51.052;13.754;2023-04-24T07:50:53;99215.94;;;18.59;47.17
75063;BME280;63981;51.052;13.754;2023-04-24T07:53:19;99218.06;;;18.95;45.39
75063;BME280;63981;51.052;13.754;2023-04-24T07:55:45;99221.00;;;18.54;45.99
75063;BME280;63981;51.052;13.754;2023-04-24T07:58:11;99229.13;;;18.61;46.54
75063;BME280;63981;51.052;13.754;2023-04-24T08:00:37;99201.16;;;18.79;45.38
75063;BME280;63981;51.052;13.754;2023-04-24T08:03:03;99230.75;;;19.15;44.63
75063;BME280;63981;51.052;13.754;2023-04-24T08:05:28;99237.63;;;19.10;45.73
75063;BME280;63981;51.052;13.754;2023-04-24T08:07:55;99228.19;;;19.37;45.06
75063;BME280;63981;51.052;13.754;2023-04-24T08:10:21;99225.75;;;19.65;44.47
75063;BME280;63981;51.052;13.754;2023-04-24T08:12:47;99181.69;;;19.61;44.56
75063;BME280;63981;51.052;13.754;2023-04-24T08:15:13;99191.25;;;19.40;45.28
75063;BME280;63981;51.052;13.754;2023-04-24T08:17:39;99199.78;;;18.83;46.44
75063;BME280;63981;51.052;13.754;2023-04-24T08:20:05;99224.41;;;18.94;45.92
75063;BME280;63981;51.052;13.754;2023-04-24T08:22:35;99232.31;;;18.56;46.71
75063;BME280;63981;51.052;13.754;2023-04-24T08:25:02;99198.56;;;19.09;45.55
75063;BME280;63981;51.052;13.754;2023-04-24T08:27:28;99221.47;;;19.41;45.89
75063;BME280;63981;51.052;13.754;2023-04-24T08:29:54;99218.84;;;19.56;43.37
75063;BME280;63981;51.052;13.754;2023-04-24T08:32:20;99227.91;;;18.71;44.47
75063;BME280;63981;51.052;13.754;2023-04-24T08:34:46;99227.19;;;19.53;43.54
75063;BME280;63981;51.052;13.754;2023-04-24T08:37:12;99188.28;;;19.21;43.84
75063;BME280;63981;51.052;13.754;2023-04-24T08:39:37;99235.63;;;19.27;44.85
75063;BME280;63981;51.052;13.754;2023-04-24T08:42:04;99233.56;;;18.76;44.44
75063;BME280;63981;51.052;13.754;2023-04-24T08:44:34;99231.38;;;19.85;42.59
75063;BME280;63981;51.052;13.754;2023-04-24T08:47:04;99240.91;;;19.35;43.18
75063;BME280;63981;51.052;13.754;2023-04-24T08:49:30;99230.16;;;19.05;43.39
75063;BME280;63981;51.052;13.754;2023-04-24T08:51:56;99236.00;;;19.24;42.18
75063;BME280;63981;51.052;13.754;2023-04-24T08:54:22;99231.31;;;18.65;43.72
75063;BME280;63981;51.052;13.754;2023-04-24T08:56:48;99244.38;;;18.52;45.22
75063;BME280;63981;51.052;13.754;2023-04-24T08:59:15;99235.19;;;19.00;43.34
75063;BME280;63981;51.052;13.754;2023-04-24T09:01:41;99236.50;;;19.04;43.43
75063;BME280;63981;51.052;13.754;2023-04-24T09:04:08;99239.31;;;19.93;40.82
75063;BME280;63981;51.052;13.754;2023-04-24T09:06:38;99190.84;;;20.39;38.41
75063;BME280;63981;51.052;13.754;2023-04-24T09:09:04;99233.06;;;20.73;39.53
75063;BME280;63981;51.052;13.754;2023-04-24T09:11:32;99229.59;;;19.92;39.15
75063;BME280;63981;51.052;13.754;2023-04-24T09:14:00;99235.56;;;20.23;37.72
75063;BME280;63981;51.052;13.754;2023-04-24T09:16:26;99234.50;;;20.54;37.54
75063;BME280;63981;51.052;13.754;2023-04-24T09:18:52;99193.78;;;21.08;36.52
75063;BME280;63981;51.052;13.754;2023-04-24T09:21:21;99231.19;;;21.16;38.53
75063;BME280;63981;51.052;13.754;2023-04-24T09:23:46;99213.75;;;21.96;35.99
75063;BME280;63981;51.052;13.754;2023-04-24T09:26:22;99237.22;;;22.15;36.44
75063;BME280;63981;51.052;13.754;2023-04-24T09:28:48;99236.81;;;21.77;35.96
75063;BME280;63981;51.052;13.754;2023-04-24T09:31:19;99239.75;;;21.26;39.03
75063;BME280;63981;51.052;13.754;2023-04-24T09:33:54;99201.41;;;21.04;38.10
75063;BME280;63981;51.052;13.754;2023-04-24T09:36:41;99233.34;;;21.06;39.36
75063;BME280;63981;51.052;13.754;2023-04-24T09:39:12;99229.94;;;20.90;39.42
75063;BME280;63981;51.052;13.754;2023-04-24T09:41:54;99231.19;;;20.95;39.31
75063;BME280;63981;51.052;13.754;2023-04-24T09:44:23;99234.41;;;20.11;40.13
75063;BME280;63981;51.052;13.754;2023-04-24T09:46:59;99245.16;;;20.32;39.80
75063;BME280;63981;51.052;13.754;2023-04-24T09:49:29;99234.41;;;20.62;39.16
75063;BME280;63981;51.052;13.754;2023-04-24T09:52:07;99239.22;;;20.52;40.27
75063;BME280;63981;51.052;13.754;2023-04-24T09:54:33;99224.06;;;20.80;39.14
75063;BME280;63981;51.052;13.754;2023-04-24T09:56:59;99234.41;;;19.96;40.02
75063;BME280;63981;51.052;13.754;2023-04-24T09:59:28;99240.88;;;19.87;40.54
75063;BME280;63981;51.052;13.754;2023-04-24T10:01:55;99235.97;;;19.61;41.95
75063;BME280;63981;51.052;13.754;2023-04-24T10:04:23;99212.38;;;19.12;41.54
75063;BME280;63981;51.052;13.754;2023-04-24T10:06:51;99198.91;;;19.43;39.66
75063;BME280;63981;51.052;13.754;2023-04-24T10:09:19;99233.53;;;20.25;40.30
75063;BME280;63981;51.052;13.754;2023-04-24T10:11:47;99215.22;;;19.78;39.64
75063;BME280;63981;51.052;13.754;2023-04-24T10:14:15;99225.03;;;19.71;40.29
75063;BME280;63981;51.052;13.754;2023-04-24T10:16:42;99237.22;;;20.24;39.76
75063;BME280;63981;51.052;13.754;2023-04-24T10:19:08;99242.19;;;20.27;40.09
75063;BME280;63981;51.052;13.754;2023-04-24T10:21:34;99235.38;;;19.51;40.38
75063;BME280;63981;51.052;13.754;2023-04-24T10:24:01;99233.16;;;19.92;39.74
75063;BME280;63981;51.052;13.754;2023-04-24T10:26:29;99225.94;;;19.26;40.28
75063;BME280;63981;51.052;13.754;2023-04-24T10:28:57;99222.97;;;20.39;38.49
75063;BME280;63981;51.052;13.754;2023-04-24T10:31:24;99226.00;;;21.36;36.97
75063;BME280;63981;51.052;13.754;2023-04-24T10:33:52;99216.81;;;21.86;34.49
75063;BME280;63981;51.052;13.754;2023-04-24T10:36:22;99172.94;;;24.44;32.05
75063;BME280;63981;51.052;13.754;2023-04-24T10:38:49;99204.44;;;25.31;31.20
75063;BME280;63981;51.052;13.754;2023-04-24T10:41:17;99205.69;;;26.27;28.28
75063;BME280;63981;51.052;13.754;2023-04-24T10:44:10;99152.91;;;24.64;29.66
75063;BME280;63981;51.052;13.754;2023-04-24T10:46:43;99207.41;;;22.64;33.26
75063;BME280;63981;51.052;13.754;2023-04-24T10:49:09;99187.75;;;20.99;38.01
75063;BME280;63981;51.052;13.754;2023-04-24T10:51:51;99226.03;;;20.50;38.72
75063;BME280;63981;51.052;13.754;2023-04-24T10:59:45;99177.88;;;21.00;37.46
75063;BME280;63981;51.052;13.754;2023-04-24T11:02:16;99215.91;;;20.88;37.31
75063;BME280;63981;51.052;13.754;2023-04-24T11:04:43;99221.75;;;20.05;39.67
75063;BME280;63981;51.052;13.754;2023-04-24T11:07:10;99200.69;;;20.31;38.46
75063;BME280;63981;51.052;13.754;2023-04-24T11:09:36;99195.97;;;19.01;40.95
75063;BME280;63981;51.052;13.754;2023-04-24T11:12:10;99202.69;;;18.51;42.49
75063;BME280;63981;51.052;13.754;2023-04-24T11:17:35;99209.03;;;18.50;42.09
75063;BME280;63981;51.052;13.754;2023-04-24T11:20:04;99233.56;;;18.76;42.39
75063;BME280;63981;51.052;13.754;2023-04-24T11:22:37;99240.16;;;18.89;41.93
75063;BME280;63981;51.052;13.754;2023-04-24T11:25:04;99193.28;;;19.01;40.60
75063;BME280;63981;51.052;13.754;2023-04-24T11:27:41;99238.72;;;19.53;40.76
75063;BME280;63981;51.052;13.754;2023-04-24T11:30:08;99233.66;;;20.02;40.01
75063;BME280;63981;51.052;13.754;2023-04-24T11:32:37;99232.47;;;19.61;40.85
75063;BME280;63981;51.052;13.754;2023-04-24T11:35:16;99239.41;;;19.55;40.75
75063;BME280;63981;51.052;13.754;2023-04-24T11:37:44;99249.34;;;19.24;41.53
75063;BME280;63981;51.052;13.754;2023-04-24T11:40:16;99242.84;;;20.44;40.08
75063;BME280;63981;51.052;13.754;2023-04-24T11:42:44;99230.06;;;24.59;32.16
75063;BME280;63981;51.052;13.754;2023-04-24T11:45:12;99215.16;;;27.31;28.09
75063;BME280;63981;51.052;13.754;2023-04-24T11:47:39;99114.03;;;28.41;25.07
75063;BME280;63981;51.052;13.754;2023-04-24T11:50:07;99206.88;;;29.44;23.76
75063;BME280;63981;51.052;13.754;2023-04-24T11:52:37;99210.53;;;26.55;27.57
75063;BME280;63981;51.052;13.754;2023-04-24T11:55:03;99219.13;;;24.02;31.25
75063;BME280;63981;51.052;13.754;2023-04-24T11:57:30;99216.75;;;23.28;33.00
75063;BME280;63981;51.052;13.754;2023-04-24T12:00:00;99220.88;;;21.41;35.67
75063;BME280;63981;51.052;13.754;2023-04-24T12:02:27;99191.63;;;27.43;27.08
75063;BME280;63981;51.052;13.754;2023-04-24T12:04:53;99197.91;;;30.47;22.60
75063;BME280;63981;51.052;13.754;2023-04-24T12:07:20;99192.31;;;26.50;27.17
75063;BME280;63981;51.052;13.754;2023-04-24T12:09:48;99231.03;;;21.80;35.74
75063;BME280;63981;51.052;13.754;2023-04-24T12:12:16;99227.00;;;21.35;36.23
75063;BME280;63981;51.052;13.754;2023-04-24T12:15:06;99221.25;;;23.87;31.78
75063;BME280;63981;51.052;13.754;2023-04-24T12:17:33;99225.81;;;22.67;33.64
75063;BME280;63981;51.052;13.754;2023-04-24T12:20:03;99227.38;;;21.04;35.23
75063;BME280;63981;51.052;13.754;2023-04-24T12:22:50;99235.97;;;19.91;37.07
75063;BME280;63981;51.052;13.754;2023-04-24T12:25:20;99227.31;;;19.74;35.86
75063;BME280;63981;51.052;13.754;2023-04-24T12:27:51;99229.56;;;18.95;36.88
75063;BME280;63981;51.052;13.754;2023-04-24T12:30:17;99246.41;;;18.96;36.10
75063;BME280;63981;51.052;13.754;2023-04-24T12:32:45;99234.59;;;22.35;32.11
75063;BME280;63981;51.052;13.754;2023-04-24T12:35:12;99220.06;;;28.73;23.31
75063;BME280;63981;51.052;13.754;2023-04-24T12:37:38;99210.38;;;30.00;20.11
75063;BME280;63981;51.052;13.754;2023-04-24T12:40:10;99218.47;;;28.60;21.58
75063;BME280;63981;51.052;13.754;2023-04-24T12:42:42;99228.53;;;28.08;23.10
75063;BME280;63981;51.052;13.754;2023-04-24T12:45:08;99233.50;;;27.06;23.86
75063;BME280;63981;51.052;13.754;2023-04-24T12:47:35;99193.50;;;23.87;28.08
75063;BME280;63981;51.052;13.754;2023-04-24T12:50:01;99213.84;;;22.09;30.26
75063;BME280;63981;51.052;13.754;2023-04-24T12:52:29;99232.06;;;21.79;31.40
75063;BME280;63981;51.052;13.754;2023-04-24T12:54:59;99242.38;;;24.48;28.49
75063;BME280;63981;51.052;13.754;2023-04-24T12:57:27;99236.56;;;25.39;26.64
75063;BME280;63981;51.052;13.754;2023-04-24T12:59:57;99235.53;;;23.81;28.18
75063;BME280;63981;51.052;13.754;2023-04-24T13:02:25;99237.03;;;23.17;29.34